Time;durP1;ratioP1;P1;durP2;ratioP2;P2;SDS_P1;SDS_P2;PMS_P1;PMS_P2;Temp;Humidity;BMP_temperature;BMP_pressure;BME280_temperature;BME280_humidity;BME280_pressure;Samples;Min_cycle;Max_cycle;Signal;HPM_P1;HPM_P2
2023/01/12 00:00:36;;;;;;;207.20;94.55;;;4.30;99.90;;;;;;5054550;28;20059;-63
2023/01/12 00:03:02;;;;;;;250.27;107.68;;;4.30;99.90;;;;;;5054413;28;20065;-63
2023/01/12 00:05:28;;;;;;;345.13;130.55;;;4.40;99.90;;;;;;5054763;28;20033;-63
2023/01/12 00:07:54;;;;;;;336.00;127.20;;;4.50;99.90;;;;;;5054720;28;20167;-63
2023/01/12 00:10:20;;;;;;;320.30;128.65;;;4.50;99.90;;;;;;5054284;28;20329;-63
2023/01/12 00:12:46;;;;;;;329.80;131.30;;;4.30;99.90;;;;;;5054509;28;20045;-63
2023/01/12 00:15:12;;;;;;;283.05;119.90;;;4.40;99.90;;;;;;5054459;28;20029;-63
2023/01/12 00:17:38;;;;;;;268.88;115.80;;;4.40;99.90;;;;;;5054343;28;20060;-63
2023/01/12 00:20:05;;;;;;;252.20;111.30;;;4.30;99.90;;;;;;5054407;28;20017;-64
2023/01/12 00:22:31;;;;;;;267.23;113.68;;;4.30;99.90;;;;;;5054438;28;20526;-63
2023/01/12 00:24:57;;;;;;;290.25;120.25;;;4.40;99.90;;;;;;5054296;28;20105;-63
2023/01/12 00:27:22;;;;;;;286.73;118.25;;;4.40;99.90;;;;;;5054272;28;20108;-63
2023/01/12 00:29:49;;;;;;;282.65;119.03;;;4.40;99.90;;;;;;5036414;28;20100;-63
2023/01/12 00:32:17;;;;;;;259.92;114.63;;;4.50;99.90;;;;;;5049285;28;20041;-63
2023/01/12 00:34:44;;;;;;;231.13;112.65;;;4.50;99.90;;;;;;5034519;28;20033;-63
2023/01/12 00:37:10;;;;;;;206.55;100.55;;;4.50;99.90;;;;;;5034223;28;20025;-63
2023/01/12 00:39:36;;;;;;;196.00;93.82;;;4.60;99.90;;;;;;5034526;28;20029;-63
2023/01/12 00:47:33;;;;;;;214.52;90.47;;;4.30;99.90;;;;;;5034252;28;20084;-63
2023/01/12 00:49:59;;;;;;;206.82;90.85;;;4.30;99.90;;;;;;5034116;28;20032;-63
2023/01/12 00:52:25;;;;;;;164.68;78.57;;;4.40;99.90;;;;;;5033791;28;20026;-63
2023/01/12 00:54:51;;;;;;;162.25;79.30;;;4.30;99.90;;;;;;5034212;28;20026;-63
2023/01/12 00:57:18;;;;;;;169.35;83.78;;;4.30;99.90;;;;;;5033853;28;20044;-63
2023/01/12 00:59:44;;;;;;;164.52;80.97;;;4.20;99.90;;;;;;5033825;28;20069;-63
2023/01/12 01:02:11;;;;;;;168.25;78.38;;;4.20;99.90;;;;;;5033561;28;20056;-63
2023/01/12 01:04:37;;;;;;;177.93;84.97;;;4.30;99.90;;;;;;5033940;28;20104;-63
2023/01/12 01:07:03;;;;;;;177.02;85.00;;;4.30;99.90;;;;;;5039055;28;20120;-63
2023/01/12 01:09:30;;;;;;;171.75;83.40;;;4.30;99.90;;;;;;5053793;28;20048;-63
2023/01/12 01:11:57;;;;;;;177.18;85.15;;;4.40;99.90;;;;;;5053555;28;20474;-63
2023/01/12 01:14:23;;;;;;;172.90;82.47;;;4.50;99.90;;;;;;5053869;28;20033;-63
2023/01/12 01:16:50;;;;;;;181.95;87.60;;;4.50;99.90;;;;;;5053848;28;20064;-63
2023/01/12 01:19:16;;;;;;;198.55;90.22;;;4.50;99.90;;;;;;5053320;28;20402;-63
2023/01/12 01:21:41;;;;;;;224.95;95.78;;;4.50;99.90;;;;;;5053715;28;20025;-63
2023/01/12 01:24:12;;;;;;;216.85;96.80;;;4.50;99.90;;;;;;5053400;28;20055;-63
2023/01/12 01:26:39;;;;;;;206.13;94.05;;;4.60;99.90;;;;;;5053753;28;20112;-63
2023/01/12 01:29:05;;;;;;;203.70;93.47;;;4.60;99.90;;;;;;5053411;28;20112;-63
2023/01/12 01:31:31;;;;;;;224.93;99.43;;;4.60;99.90;;;;;;5053529;28;20128;-63
2023/01/12 01:33:57;;;;;;;234.07;103.25;;;4.60;99.90;;;;;;5053766;28;20057;-63
2023/01/12 01:36:23;;;;;;;246.43;105.93;;;4.60;99.90;;;;;;5053338;28;20036;-63
2023/01/12 01:38:49;;;;;;;247.65;109.75;;;4.60;99.90;;;;;;5053511;28;20082;-63
2023/01/12 01:41:24;;;;;;;230.98;104.93;;;4.60;99.90;;;;;;5053409;28;20041;-63
2023/01/12 01:43:56;;;;;;;259.35;111.03;;;4.60;99.90;;;;;;5053569;28;20119;-63
2023/01/12 01:46:32;;;;;;;224.68;101.15;;;4.70;99.90;;;;;;5053608;28;20032;-63
2023/01/12 01:49:08;;;;;;;197.38;88.13;;;4.80;99.90;;;;;;5053470;28;20052;-63
2023/01/12 01:51:35;;;;;;;172.43;79.18;;;4.80;99.90;;;;;;5053485;28;20056;-63
2023/01/12 01:54:02;;;;;;;152.25;73.88;;;4.80;99.90;;;;;;5053545;28;20025;-63
2023/01/12 01:56:32;;;;;;;153.52;75.38;;;4.80;99.90;;;;;;5053572;28;20036;-63
2023/01/12 01:59:08;;;;;;;143.57;69.90;;;4.60;99.90;;;;;;5053370;28;20115;-63
2023/01/12 02:01:35;;;;;;;135.63;68.85;;;4.60;99.90;;;;;;5053344;28;20032;-63
2023/01/12 02:04:02;;;;;;;150.98;69.15;;;4.70;99.90;;;;;;5053540;28;20376;-63
2023/01/12 02:06:29;;;;;;;184.10;81.15;;;4.60;99.90;;;;;;5055855;28;20035;-63
2023/01/12 02:09:04;;;;;;;176.05;78.35;;;4.60;99.90;;;;;;5057105;28;20095;-63
2023/01/12 02:17:23;;;;;;;147.85;66.18;;;4.30;99.90;;;;;;5056752;28;20027;-63
2023/01/12 02:19:52;;;;;;;168.98;70.85;;;4.30;99.90;;;;;;5057220;28;20483;-63
2023/01/12 02:22:30;;;;;;;154.02;70.70;;;4.40;99.90;;;;;;5056623;28;20020;-63
2023/01/12 02:25:20;;;;;;;163.45;72.47;;;4.50;99.90;;;;;;5056829;28;20382;-63
2023/01/12 02:28:04;;;;;;;160.65;70.80;;;4.40;99.90;;;;;;5056806;28;20037;-63
2023/01/12 02:31:00;;;;;;;148.25;67.78;;;4.40;99.90;;;;;;5056633;28;20075;-63
2023/01/12 02:33:42;;;;;;;130.90;61.60;;;4.40;99.90;;;;;;5056358;28;20040;-63
2023/01/12 02:36:13;;;;;;;131.25;61.33;;;4.20;99.90;;;;;;5056351;28;20031;-63
2023/01/12 02:39:09;;;;;;;164.77;70.10;;;4.20;99.90;;;;;;5056442;28;20028;-63
2023/01/12 02:45:12;;;;;;;130.82;56.88;;;4.40;99.90;;;;;;5056358;28;20032;-63
2023/01/12 02:47:50;;;;;;;125.13;57.08;;;4.40;99.90;;;;;;5056141;28;20036;-63
2023/01/12 02:50:25;;;;;;;106.40;51.70;;;4.50;99.90;;;;;;5056174;28;20041;-63
2023/01/12 02:52:58;;;;;;;104.00;47.80;;;4.60;99.90;;;;;;5055975;28;20090;-63
2023/01/12 02:55:27;;;;;;;95.63;49.92;;;4.60;99.90;;;;;;5055983;28;20033;-63
2023/01/12 02:57:55;;;;;;;95.07;48.70;;;4.40;99.90;;;;;;5056043;28;20055;-63
2023/01/12 03:00:22;;;;;;;97.13;49.80;;;4.40;99.90;;;;;;5056088;28;20030;-63
2023/01/12 03:02:49;;;;;;;92.20;49.00;;;4.30;99.90;;;;;;5055977;28;20040;-63
2023/01/12 03:05:15;;;;;;;109.07;52.85;;;4.20;99.90;;;;;;5055864;28;20082;-63
2023/01/12 03:07:59;;;;;;;112.93;53.63;;;4.20;99.90;;;;;;5055607;28;20044;-64
2023/01/12 03:10:50;;;;;;;93.80;49.45;;;4.20;99.90;;;;;;5054420;28;20028;-63
2023/01/12 03:13:16;;;;;;;96.25;49.00;;;4.20;99.90;;;;;;5055706;28;20480;-63
2023/01/12 03:15:50;;;;;;;93.13;47.42;;;4.20;99.90;;;;;;5037968;28;20033;-63
2023/01/12 03:19:08;;;;;;;99.85;49.42;;;4.20;99.90;;;;;;5054240;28;20033;-63
2023/01/12 03:21:37;;;;;;;104.65;52.35;;;4.30;99.90;;;;;;5037237;28;20155;-63
2023/01/12 03:24:17;;;;;;;110.00;56.38;;;4.20;99.90;;;;;;5055404;28;20497;-63
2023/01/12 03:26:49;;;;;;;114.38;58.28;;;4.20;99.90;;;;;;5055686;28;20108;-63
2023/01/12 03:29:22;;;;;;;108.22;57.13;;;4.30;99.90;;;;;;5055230;28;20033;-63
2023/01/12 03:31:48;;;;;;;95.13;49.60;;;4.40;99.90;;;;;;5055732;28;20033;-63
2023/01/12 03:34:14;;;;;;;99.13;50.30;;;4.30;99.90;;;;;;5055391;28;20037;-63
2023/01/12 03:36:53;;;;;;;94.75;48.33;;;4.20;99.90;;;;;;5055181;28;20082;-63
2023/01/12 03:39:23;;;;;;;100.68;49.67;;;4.10;99.90;;;;;;5055132;28;20152;-63
2023/01/12 03:42:13;;;;;;;95.57;48.80;;;4.20;99.90;;;;;;5055269;28;20037;-62
2023/01/12 03:44:57;;;;;;;95.90;48.80;;;4.20;99.90;;;;;;5055297;28;20458;-63
2023/01/12 03:47:28;;;;;;;96.95;48.75;;;4.20;99.90;;;;;;5055090;28;20277;-63
2023/01/12 03:49:58;;;;;;;98.97;48.88;;;4.10;99.90;;;;;;5054987;28;20029;-63
2023/01/12 03:52:26;;;;;;;92.35;49.65;;;4.20;99.90;;;;;;5055031;28;20036;-63
2023/01/12 03:54:55;;;;;;;97.85;51.72;;;4.20;99.90;;;;;;5054987;28;20087;-63
2023/01/12 03:57:22;;;;;;;157.50;70.82;;;4.10;99.90;;;;;;5054935;28;20104;-63
2023/01/12 03:59:48;;;;;;;95.03;50.22;;;4.20;99.90;;;;;;5054815;28;20025;-63
2023/01/12 04:02:14;;;;;;;98.13;50.85;;;4.20;99.90;;;;;;5054740;28;20025;-63
2023/01/12 04:04:40;;;;;;;104.82;52.67;;;4.20;99.90;;;;;;5054788;28;20481;-63
2023/01/12 04:07:06;;;;;;;99.88;52.25;;;4.30;99.90;;;;;;5054591;28;20157;-63
2023/01/12 04:09:32;;;;;;;109.95;54.05;;;4.40;99.90;;;;;;5054794;28;20398;-63
2023/01/12 04:12:09;;;;;;;86.50;45.58;;;4.50;99.90;;;;;;5054523;28;20037;-63
2023/01/12 04:14:37;;;;;;;80.22;45.40;;;4.50;99.90;;;;;;5054717;28;20056;-63
2023/01/12 04:17:04;;;;;;;88.60;48.50;;;4.50;99.90;;;;;;5054376;28;20017;-63
2023/01/12 04:19:29;;;;;;;85.22;47.25;;;4.40;99.90;;;;;;5054292;28;20056;-63
2023/01/12 04:24:40;;;;;;;104.15;54.75;;;4.50;99.90;;;;;;5054374;28;20036;-63
2023/01/12 04:27:06;;;;;;;109.78;57.60;;;4.50;99.90;;;;;;5054178;28;20104;-63
2023/01/12 04:29:32;;;;;;;121.15;58.42;;;4.50;99.90;;;;;;5054132;28;20052;-63
2023/01/12 04:31:58;;;;;;;135.75;62.67;;;4.50;99.90;;;;;;5054267;28;20558;-63
2023/01/12 04:34:23;;;;;;;125.35;59.63;;;4.50;99.90;;;;;;5054137;28;20075;-63
2023/01/12 04:36:49;;;;;;;129.02;61.15;;;4.50;99.90;;;;;;5054250;28;20040;-63
2023/01/12 04:39:15;;;;;;;132.18;63.63;;;4.50;99.90;;;;;;5053738;28;20048;-63
2023/01/12 04:41:41;;;;;;;132.65;65.75;;;4.40;99.90;;;;;;5054267;28;20029;-63
2023/01/12 04:44:07;;;;;;;130.48;62.45;;;4.20;99.90;;;;;;5053828;28;20049;-63
2023/01/12 04:46:33;;;;;;;136.02;65.72;;;4.20;99.90;;;;;;5053875;28;20029;-63
2023/01/12 04:48:59;;;;;;;136.63;64.40;;;4.10;99.90;;;;;;5054130;28;20025;-63
2023/01/12 04:51:25;;;;;;;148.43;69.25;;;4.30;99.90;;;;;;5053767;28;20040;-63
2023/01/12 04:53:52;;;;;;;138.55;70.85;;;4.40;99.90;;;;;;5054144;28;20033;-63
2023/01/12 04:56:18;;;;;;;146.88;68.28;;;4.30;99.90;;;;;;5054121;28;20063;-63
2023/01/12 04:58:44;;;;;;;150.77;70.80;;;4.30;99.90;;;;;;5054027;28;20025;-63
2023/01/12 05:01:18;;;;;;;147.90;69.57;;;4.30;99.90;;;;;;5053536;28;20040;-63
2023/01/12 05:03:44;;;;;;;157.70;71.72;;;4.50;99.90;;;;;;5053890;28;20044;-63
2023/01/12 05:06:11;;;;;;;165.98;73.63;;;4.50;99.90;;;;;;5053662;28;20368;-63
2023/01/12 05:11:28;;;;;;;155.73;70.68;;;4.30;99.90;;;;;;5053700;28;20037;-63
2023/01/12 05:13:55;;;;;;;150.52;68.90;;;4.10;99.90;;;;;;5053954;28;20029;-63
2023/01/12 05:16:21;;;;;;;154.90;71.57;;;4.20;99.90;;;;;;5053601;28;20028;-63
2023/01/12 05:18:47;;;;;;;154.43;71.45;;;4.20;99.90;;;;;;5046561;28;20025;-63
2023/01/12 05:21:15;;;;;;;155.77;71.70;;;4.30;99.90;;;;;;5033690;28;20030;-63
2023/01/12 05:23:41;;;;;;;168.43;76.07;;;4.30;99.90;;;;;;5033655;28;20034;-63
2023/01/12 05:26:08;;;;;;;153.32;73.43;;;4.30;99.90;;;;;;5033653;28;20033;-63
2023/01/12 05:28:34;;;;;;;157.40;76.45;;;4.30;99.90;;;;;;5033861;28;20386;-63
2023/01/12 05:31:09;;;;;;;180.88;82.10;;;4.30;99.90;;;;;;5042877;28;20036;-63
2023/01/12 05:33:36;;;;;;;188.80;92.80;;;4.40;99.90;;;;;;5053863;28;20036;-63
2023/01/12 05:36:14;;;;;;;188.10;98.32;;;4.40;99.90;;;;;;5053395;28;20530;-63
2023/01/12 05:38:40;;;;;;;213.15;111.45;;;4.50;99.90;;;;;;5053504;28;20378;-63
2023/01/12 05:41:09;;;;;;;218.68;115.15;;;4.50;99.90;;;;;;5055468;28;20037;-63
2023/01/12 05:43:50;;;;;;;206.93;105.22;;;4.50;99.90;;;;;;5057321;28;20036;-63
2023/01/12 05:46:24;;;;;;;197.15;105.10;;;4.50;99.90;;;;;;5057244;28;20541;-63
2023/01/12 05:48:52;;;;;;;206.63;113.18;;;4.50;99.90;;;;;;5056144;28;20471;-63
2023/01/12 05:51:19;;;;;;;206.38;107.72;;;4.50;99.90;;;;;;5056979;28;20056;-63
2023/01/12 05:53:45;;;;;;;207.10;101.47;;;4.50;99.90;;;;;;5057448;28;20545;-63
2023/01/12 05:56:17;;;;;;;199.65;100.65;;;4.40;99.90;;;;;;5057211;28;20032;-63
2023/01/12 05:58:51;;;;;;;193.27;97.15;;;4.30;99.90;;;;;;5056968;28;20040;-63
2023/01/12 06:01:18;;;;;;;186.05;97.93;;;4.30;99.90;;;;;;5057150;28;20056;-63
2023/01/12 06:03:51;;;;;;;196.30;97.32;;;4.40;99.90;;;;;;5057395;28;20060;-63
2023/01/12 06:06:18;;;;;;;206.63;103.75;;;4.40;99.90;;;;;;5056822;28;20029;-63
2023/01/12 06:08:45;;;;;;;197.07;97.65;;;4.40;99.90;;;;;;5056786;28;20064;-63
2023/01/12 06:13:55;;;;;;;197.55;97.82;;;4.30;99.90;;;;;;5056816;28;20040;-63
2023/01/12 06:13:57;;;;;;;207.27;101.22;;;4.40;99.90;;;;;;5056782;28;20368;-63
2023/01/12 06:16:24;;;;;;;209.13;100.97;;;4.40;99.90;;;;;;5056804;28;20032;-63
2023/01/12 06:18:50;;;;;;;200.90;98.63;;;4.40;99.90;;;;;;5049670;28;20021;-63
2023/01/12 06:21:16;;;;;;;212.23;101.70;;;4.40;99.90;;;;;;5037292;28;20029;-63
2023/01/12 06:23:42;;;;;;;196.43;98.70;;;4.30;99.90;;;;;;5035303;28;20039;-63
2023/01/12 06:26:09;;;;;;;225.75;110.85;;;4.30;99.90;;;;;;5036909;28;20132;-63
2023/01/12 06:28:36;;;;;;;224.07;106.55;;;4.40;99.90;;;;;;5037189;28;20046;-63
2023/01/12 06:31:06;;;;;;;227.73;103.07;;;4.40;99.90;;;;;;5046725;28;20033;-63
2023/01/12 06:33:32;;;;;;;227.20;107.20;;;4.60;99.90;;;;;;5057357;28;20064;-63
2023/01/12 06:35:58;;;;;;;231.95;103.32;;;4.70;99.90;;;;;;5057122;28;20120;-63
2023/01/12 06:38:26;;;;;;;208.35;99.75;;;4.60;99.90;;;;;;5056416;28;20108;-63
2023/01/12 06:40:52;;;;;;;204.80;99.68;;;4.70;99.90;;;;;;5055779;28;20463;-63
2023/01/12 06:43:19;;;;;;;205.13;102.78;;;4.70;99.90;;;;;;5054189;28;20104;-63
2023/01/12 06:45:55;;;;;;;200.32;104.47;;;4.60;99.90;;;;;;5051737;28;20060;-63
2023/01/12 06:48:26;;;;;;;195.45;102.93;;;4.70;99.90;;;;;;5052856;28;20033;-63
2023/01/12 06:50:57;;;;;;;215.75;107.68;;;4.80;99.90;;;;;;5030578;28;21198;-62
2023/01/12 06:53:23;;;;;;;196.10;102.20;;;4.80;99.90;;;;;;5033185;28;20025;-63
2023/01/12 06:55:50;;;;;;;207.43;107.43;;;4.80;99.90;;;;;;5035129;28;20036;-63
2023/01/12 06:58:17;;;;;;;209.65;108.03;;;4.80;99.90;;;;;;5039809;28;20366;-65
2023/01/12 07:00:43;;;;;;;203.40;106.05;;;4.70;99.90;;;;;;5055467;28;20033;-66
2023/01/12 07:03:17;;;;;;;208.60;105.70;;;4.70;99.90;;;;;;5055668;28;20033;-66
2023/01/12 07:05:43;;;;;;;245.82;125.28;;;4.70;99.90;;;;;;5055653;28;20017;-66
2023/01/12 07:08:10;;;;;;;303.73;147.57;;;4.70;99.90;;;;;;5055330;28;20135;-66
2023/01/12 07:10:36;;;;;;;266.83;134.48;;;4.70;99.90;;;;;;5045542;28;20033;-66
2023/01/12 07:13:03;;;;;;;233.88;121.85;;;4.80;99.90;;;;;;5034145;28;20030;-64
2023/01/12 07:15:29;;;;;;;231.38;117.30;;;4.60;99.90;;;;;;5053361;28;20029;-65
2023/01/12 07:17:56;;;;;;;250.35;129.27;;;4.50;99.90;;;;;;5054955;28;20029;-65
2023/01/12 07:20:22;;;;;;;242.07;122.50;;;4.50;99.90;;;;;;5015708;28;20052;-63
2023/01/12 07:22:48;;;;;;;249.25;119.57;;;4.50;99.90;;;;;;5032821;28;20430;-65
2023/01/12 07:25:14;;;;;;;260.42;119.28;;;4.50;99.90;;;;;;5035544;28;20063;-62
2023/01/12 07:27:48;;;;;;;264.90;118.55;;;4.70;99.90;;;;;;5018027;28;20093;-62
2023/01/12 07:30:20;;;;;;;280.80;121.97;;;4.70;99.90;;;;;;5039301;28;20024;-62
2023/01/12 07:32:47;;;;;;;269.35;125.85;;;4.80;99.90;;;;;;5056017;28;20036;-65
2023/01/12 07:35:13;;;;;;;267.67;120.80;;;4.70;99.90;;;;;;5055787;28;20412;-65
2023/01/12 07:37:45;;;;;;;258.88;120.70;;;4.70;99.90;;;;;;5055911;28;20025;-65
2023/01/12 07:40:11;;;;;;;252.63;117.25;;;4.60;99.90;;;;;;5055933;28;20532;-65
2023/01/12 07:42:37;;;;;;;257.10;119.03;;;4.70;99.90;;;;;;5054769;28;20043;-65
2023/01/12 07:45:03;;;;;;;265.65;121.15;;;4.60;99.90;;;;;;5055464;28;20033;-65
2023/01/12 07:47:30;;;;;;;252.70;115.22;;;4.50;99.90;;;;;;5047794;28;20032;-65
2023/01/12 07:49:56;;;;;;;256.13;116.18;;;4.60;99.90;;;;;;5035593;28;20091;-66
2023/01/12 07:52:22;;;;;;;265.85;118.03;;;4.70;99.90;;;;;;5035296;28;20383;-63
2023/01/12 07:54:48;;;;;;;284.55;122.63;;;4.70;99.90;;;;;;5034993;28;20025;-63
2023/01/12 07:57:14;;;;;;;269.98;120.35;;;4.80;99.90;;;;;;5035512;28;20021;-63
2023/01/12 07:59:40;;;;;;;271.60;116.72;;;4.70;99.90;;;;;;5020057;28;20030;-63
2023/01/12 08:02:12;;;;;;;279.35;119.10;;;4.60;99.90;;;;;;5015567;28;20395;-64
2023/01/12 08:04:38;;;;;;;258.63;118.55;;;4.70;99.90;;;;;;5015282;28;20033;-63
2023/01/12 08:07:04;;;;;;;289.27;118.82;;;4.90;99.90;;;;;;5021201;28;20049;-63
2023/01/12 08:09:32;;;;;;;260.48;118.07;;;4.80;99.90;;;;;;5034883;28;20044;-65
2023/01/12 08:11:58;;;;;;;274.90;115.50;;;4.80;99.90;;;;;;5051974;28;20052;-66
2023/01/12 08:14:32;;;;;;;268.70;118.07;;;4.90;99.90;;;;;;5054697;28;20033;-65
2023/01/12 08:17:01;;;;;;;256.40;111.22;;;4.90;99.90;;;;;;5048525;28;20032;-63
2023/01/12 08:19:35;;;;;;;262.13;115.60;;;5.00;99.90;;;;;;5053812;28;20029;-63
2023/01/12 08:22:07;;;;;;;265.70;115.70;;;5.10;99.90;;;;;;5055306;28;20036;-63
2023/01/12 08:24:42;;;;;;;242.98;104.93;;;5.00;99.90;;;;;;5054839;28;20029;-63
2023/01/12 08:27:09;;;;;;;236.02;101.85;;;5.00;99.90;;;;;;5053161;28;20057;-63
2023/01/12 08:29:46;;;;;;;236.70;106.85;;;5.00;99.90;;;;;;5052503;28;20036;-63
2023/01/12 08:32:17;;;;;;;241.68;104.50;;;5.00;99.90;;;;;;5055078;28;20486;-63
2023/01/12 08:34:52;;;;;;;216.43;99.40;;;5.10;99.90;;;;;;5059579;28;20108;-63
2023/01/12 08:37:23;;;;;;;223.68;96.72;;;5.20;99.90;;;;;;5056750;28;20036;-64
2023/01/12 08:39:51;;;;;;;225.52;98.57;;;5.30;99.90;;;;;;5052804;28;20021;-64
2023/01/12 08:42:25;;;;;;;220.05;100.78;;;5.50;99.90;;;;;;5053849;28;20441;-64
2023/01/12 08:44:51;;;;;;;229.15;100.68;;;5.40;99.90;;;;;;5068283;28;20101;-64
2023/01/12 08:47:25;;;;;;;228.75;99.68;;;5.50;99.90;;;;;;5072778;28;20036;-65
2023/01/12 08:49:52;;;;;;;244.50;105.05;;;5.50;99.90;;;;;;5073293;28;20044;-66
2023/01/12 08:52:18;;;;;;;237.00;101.88;;;5.60;99.90;;;;;;5074149;28;20056;-66
2023/01/12 08:54:44;;;;;;;239.10;102.18;;;5.60;99.90;;;;;;5074180;28;20641;-66
2023/01/12 08:57:11;;;;;;;254.32;100.32;;;5.70;99.90;;;;;;5060793;28;20528;-64
2023/01/12 08:59:41;;;;;;;242.25;102.72;;;5.90;99.90;;;;;;5053735;28;20021;-64
2023/01/12 09:02:11;;;;;;;262.60;109.30;;;6.00;99.90;;;;;;5053528;28;20035;-63
2023/01/12 09:04:41;;;;;;;240.30;105.70;;;6.20;99.90;;;;;;5051231;28;20056;-64
2023/01/12 09:07:09;;;;;;;243.60;108.22;;;6.40;99.90;;;;;;5059498;28;20530;-64
2023/01/12 09:09:35;;;;;;;274.40;116.47;;;6.70;99.90;;;;;;5060302;28;20163;-64
2023/01/12 09:12:01;;;;;;;311.08;130.35;;;6.80;99.90;;;;;;5066815;28;20079;-64
2023/01/12 09:14:28;;;;;;;314.70;130.57;;;7.00;99.90;;;;;;5073826;28;20113;-64
2023/01/12 09:16:57;;;;;;;278.08;117.00;;;7.40;99.90;;;;;;5076896;28;20474;-64
2023/01/12 09:19:23;;;;;;;321.80;125.60;;;7.60;99.90;;;;;;5066294;28;20463;-64
2023/01/12 09:21:52;;;;;;;295.25;119.38;;;7.60;99.90;;;;;;5057721;28;20104;-64
2023/01/12 09:24:18;;;;;;;274.60;111.38;;;7.60;99.90;;;;;;5057322;28;20021;-64
2023/01/12 09:26:45;;;;;;;285.98;117.22;;;7.70;99.90;;;;;;5057598;28;20379;-64
2023/01/12 09:29:13;;;;;;;307.08;125.82;;;7.80;99.90;;;;;;5057674;28;20033;-64
2023/01/12 09:31:41;;;;;;;324.83;132.30;;;7.80;99.90;;;;;;5071820;28;20037;-64
2023/01/12 09:34:07;;;;;;;352.50;143.68;;;8.00;99.90;;;;;;5077786;28;20024;-64
2023/01/12 09:36:35;;;;;;;357.95;142.70;;;8.20;99.90;;;;;;5066668;28;20067;-64
2023/01/12 09:39:02;;;;;;;326.70;140.23;;;7.70;99.90;;;;;;5058241;28;20124;-64
2023/01/12 09:47:24;;;;;;;366.25;150.57;;;8.30;99.90;;;;;;5077392;28;20039;-64
2023/01/12 09:50:03;;;;;;;363.02;149.25;;;8.20;99.90;;;;;;5078341;28;20029;-64
2023/01/12 09:53:01;;;;;;;381.10;160.52;;;8.20;99.90;;;;;;5066413;28;20036;-65
2023/01/12 09:55:52;;;;;;;378.73;154.65;;;8.10;99.90;;;;;;5061054;28;20619;-66
2023/01/12 09:58:36;;;;;;;374.98;152.65;;;8.20;99.90;;;;;;5043941;28;20406;-66
2023/01/12 10:01:10;;;;;;;363.33;153.80;;;8.30;99.90;;;;;;5057325;28;20037;-66
2023/01/12 10:03:40;;;;;;;339.05;142.82;;;8.30;99.90;;;;;;5047767;28;20454;-65
2023/01/12 10:06:13;;;;;;;308.00;130.40;;;8.30;99.90;;;;;;5043872;28;20029;-65
2023/01/12 10:08:53;;;;;;;303.33;129.07;;;8.20;99.90;;;;;;5049528;28;20136;-65
2023/01/12 10:11:29;;;;;;;277.67;115.60;;;8.40;99.90;;;;;;5046415;28;20450;-65
2023/01/12 10:14:19;;;;;;;293.60;124.68;;;8.50;99.90;;;;;;5061260;28;20051;-64
2023/01/12 10:17:24;;;;;;;274.35;115.30;;;8.30;99.90;;;;;;5055618;28;20029;-64
2023/01/12 10:19:56;;;;;;;282.00;123.85;;;8.30;99.90;;;;;;5054923;28;20525;-64
2023/01/12 10:22:36;;;;;;;278.88;120.50;;;8.50;99.90;;;;;;5056404;28;20140;-65
2023/01/12 10:25:23;;;;;;;279.03;115.03;;;8.40;99.90;;;;;;5037352;28;20033;-65
2023/01/12 10:27:55;;;;;;;258.73;110.47;;;8.30;99.90;;;;;;5054612;28;20031;-65
2023/01/12 10:30:34;;;;;;;216.38;95.78;;;8.20;99.90;;;;;;5050360;28;20025;-65
2023/01/12 10:33:24;;;;;;;230.20;101.97;;;8.40;99.90;;;;;;5057082;28;20029;-65
2023/01/12 10:36:18;;;;;;;234.77;102.10;;;8.30;99.90;;;;;;5057309;28;20017;-64
2023/01/12 10:38:56;;;;;;;245.95;108.65;;;8.40;99.90;;;;;;5057445;28;20076;-65
2023/01/12 10:41:25;;;;;;;265.85;115.65;;;8.20;99.90;;;;;;5055108;28;20031;-65
2023/01/12 10:43:57;;;;;;;260.15;109.03;;;8.30;99.90;;;;;;5060064;28;20033;-65
2023/01/12 10:46:26;;;;;;;216.48;94.00;;;8.30;99.90;;;;;;5056440;28;20027;-65
2023/01/12 10:49:13;;;;;;;194.90;82.57;;;8.30;99.90;;;;;;5056798;28;20032;-65
2023/01/12 10:51:55;;;;;;;238.77;100.72;;;8.20;99.90;;;;;;5057222;28;20033;-65
2023/01/12 10:54:31;;;;;;;235.43;98.60;;;8.10;99.90;;;;;;5056676;28;20195;-65
2023/01/12 10:57:04;;;;;;;224.68;101.53;;;8.10;99.90;;;;;;5056342;28;20100;-65
2023/01/12 10:59:37;;;;;;;239.70;97.90;;;8.20;99.90;;;;;;5056570;28;20025;-65
2023/01/12 11:02:07;;;;;;;180.68;81.40;;;8.40;99.90;;;;;;5056638;28;20029;-65
2023/01/12 11:04:51;;;;;;;151.38;67.65;;;8.60;99.90;;;;;;5056843;28;20052;-65
2023/01/12 11:07:29;;;;;;;135.85;59.25;;;8.80;99.90;;;;;;5063742;28;20483;-65
2023/01/12 11:10:16;;;;;;;146.30;69.63;;;8.80;99.90;;;;;;5076669;28;20028;-65
2023/01/12 11:12:52;;;;;;;131.38;64.75;;;9.00;99.90;;;;;;5076796;28;20070;-65
2023/01/12 11:15:18;;;;;;;133.43;65.07;;;9.10;99.90;;;;;;5075599;28;20347;-65
2023/01/12 11:18:14;;;;;;;119.63;55.00;;;9.10;99.90;;;;;;5075988;28;20382;-65
2023/01/12 11:20:42;;;;;;;104.75;49.05;;;9.40;99.90;;;;;;5035931;28;20103;-65
2023/01/12 11:23:22;;;;;;;104.50;49.15;;;9.50;99.90;;;;;;5035564;28;20025;-66
2023/01/12 11:25:51;;;;;;;117.07;52.03;;;9.60;99.90;;;;;;5035962;28;20029;-65
2023/01/12 11:28:32;;;;;;;134.27;55.97;;;9.60;99.40;;;;;;5035565;28;20395;-66
2023/01/12 11:31:10;;;;;;;115.53;51.63;;;9.50;97.70;;;;;;5043902;28;20378;-65
2023/01/12 11:34:08;;;;;;;108.70;51.97;;;9.70;97.30;;;;;;5055555;28;20564;-66
2023/01/12 11:36:40;;;;;;;115.35;56.08;;;9.90;97.20;;;;;;5029059;28;20119;-65
2023/01/12 11:39:13;;;;;;;119.18;56.38;;;9.90;96.10;;;;;;5054780;28;20057;-65
2023/01/12 11:45:00;;;;;;;119.57;57.80;;;10.10;94.80;;;;;;5054043;28;20025;-65
2023/01/12 11:47:32;;;;;;;114.88;49.75;;;10.10;94.70;;;;;;5051271;28;20111;-65
2023/01/12 11:50:23;;;;;;;110.80;49.33;;;10.20;92.80;;;;;;5055105;28;20083;-66
2023/01/12 11:52:50;;;;;;;93.45;45.05;;;10.30;92.20;;;;;;5054819;28;20525;-66
2023/01/12 11:55:43;;;;;;;134.25;57.50;;;10.20;92.10;;;;;;5055281;28;20029;-65
2023/01/12 11:58:30;;;;;;;108.05;48.35;;;10.40;94.40;;;;;;5054449;28;20024;-66
2023/01/12 12:01:11;;;;;;;108.28;45.65;;;10.50;92.50;;;;;;5055312;28;20031;-66
2023/01/12 12:03:55;;;;;;;83.95;38.97;;;10.50;91.50;;;;;;5055634;28;20056;-66
2023/01/12 12:06:54;;;;;;;79.32;34.97;;;10.60;91.10;;;;;;5054796;28;20029;-65
2023/01/12 12:09:48;;;;;;;82.10;38.08;;;10.60;88.00;;;;;;5054962;28;20045;-66
2023/01/12 12:12:25;;;;;;;86.38;38.03;;;10.70;88.10;;;;;;5054766;28;20033;-66
2023/01/12 12:15:14;;;;;;;83.47;33.95;;;10.70;87.90;;;;;;5054631;28;20504;-66
2023/01/12 12:18:00;;;;;;;69.90;31.70;;;10.70;88.00;;;;;;5054842;28;20529;-66
2023/01/12 12:20:50;;;;;;;75.60;32.97;;;10.50;87.40;;;;;;5034713;28;20033;-66
2023/01/12 12:23:51;;;;;;;66.90;32.30;;;10.60;86.90;;;;;;5034992;28;20033;-66
2023/01/12 12:26:37;;;;;;;70.18;29.67;;;10.60;88.40;;;;;;5034719;28;20030;-66
2023/01/12 12:29:17;;;;;;;67.90;29.67;;;10.40;85.30;;;;;;5045174;28;20467;-66
2023/01/12 12:31:53;;;;;;;69.47;31.08;;;10.10;86.90;;;;;;5054747;28;20029;-66
2023/01/12 12:34:28;;;;;;;69.57;29.77;;;10.10;87.50;;;;;;5054855;28;20478;-66
2023/01/12 12:37:10;;;;;;;58.05;30.50;;;10.00;88.10;;;;;;5055174;28;20028;-66
2023/01/12 13:11:46;;;;;;;52.17;23.65;;;9.40;90.70;;;;;;5053700;28;20094;-66
2023/01/12 13:14:35;;;;;;;59.72;25.90;;;9.40;89.50;;;;;;5053553;28;20079;-66
2023/01/12 13:17:39;;;;;;;50.20;25.08;;;9.20;90.80;;;;;;5053774;28;20036;-66
2023/01/12 13:20:05;;;;;;;55.90;23.85;;;9.00;90.40;;;;;;5048242;28;20041;-66
2023/01/12 13:22:50;;;;;;;57.00;25.85;;;9.00;91.20;;;;;;5052486;28;20379;-66
2023/01/12 13:25:15;;;;;;;50.45;23.52;;;9.10;90.70;;;;;;5050849;28;20029;-66
2023/01/12 13:27:59;;;;;;;51.50;24.40;;;9.00;90.00;;;;;;5053212;28;20379;-66
2023/01/12 13:30:25;;;;;;;60.70;26.90;;;9.00;90.70;;;;;;5061079;28;20028;-66
2023/01/12 13:33:16;;;;;;;59.63;27.30;;;9.00;91.20;;;;;;5071886;28;20036;-66
2023/01/12 13:35:45;;;;;;;55.50;24.98;;;9.00;90.80;;;;;;5053561;28;20091;-66
2023/01/12 13:38:32;;;;;;;67.32;29.55;;;8.90;90.30;;;;;;5053743;28;20021;-66
2023/01/12 13:43:13;;;;;;;66.25;27.13;;;9.10;90.70;;;;;;5050773;28;20488;-66
2023/01/12 13:44:02;;;;;;;67.25;28.40;;;9.00;90.20;;;;;;5044979;28;20036;-66
2023/01/12 13:46:39;;;;;;;69.20;30.40;;;8.90;90.70;;;;;;5053043;28;20025;-66
2023/01/12 13:49:31;;;;;;;65.28;26.98;;;8.90;91.20;;;;;;5057069;28;20031;-65